Get Adobe Flash player

Seitennavigation

Webcam Flugfeld LOAR


Herzlich Willkommen am

Segelflugfeld Altlichtenwarth
 



Ausbildungswoche in LOAR

11. - 19. Juni 2016

 

Die Ausbildungswoche ist nicht nur für Flugschüler gedacht,
es besteht natürlich die Möglichkeit  Checkflüge zu absolvieren
 aber man kann auch die Gelegenheit nutzen um die Winden-
berechtigung aufrecht zu erhalten.

Anmeldung für die Ausbildungswoche bei Hrn. Horst Erb


 

Gäste online

Aktuell sind 12 Gäste und keine Mitglieder online

Sonnenaufgang Sonnenuntergang

Thu 26 May
Sunrise 04:56
Sunset 20:43

Aviation WX

[Quelle: ADDS]
METAR
LOWW 260420Z 31009KT 9000 FEW032 BKN300 14/12 Q1016 NOSIG =
TAF
LOWW 252315Z 2600/2706 32008KT CAVOK TX22/2614Z TN13/2602Z BECMG 2608/2610 35005KT 9999 FEW050 BECMG 2618/2620 VRB02KT =